sensor_id;sensor_type;location;lat;lon;timestamp;temperature;humidity
2024;DHT22;1016;48.770;9.154;2022-12-15T00:02:00;2.70;99.90
2024;DHT22;1016;48.770;9.154;2022-12-15T00:04:45;2.80;99.90
2024;DHT22;1016;48.770;9.154;2022-12-15T00:07:29;2.80;99.90
2024;DHT22;1016;48.770;9.154;2022-12-15T00:10:13;2.90;99.90
2024;DHT22;1016;48.770;9.154;2022-12-15T00:12:57;2.80;99.90
2024;DHT22;1016;48.770;9.154;2022-12-15T00:15:41;2.90;99.90
2024;DHT22;1016;48.770;9.154;2022-12-15T00:18:25;2.90;99.90
2024;DHT22;1016;48.770;9.154;2022-12-15T00:21:09;3.00;99.90
2024;DHT22;1016;48.770;9.154;2022-12-15T00:23:53;3.00;99.90
2024;DHT22;1016;48.770;9.154;2022-12-15T00:26:37;2.90;99.90
2024;DHT22;1016;48.770;9.154;2022-12-15T00:29:21;2.80;99.90
2024;DHT22;1016;48.770;9.154;2022-12-15T00:32:05;2.90;99.90
2024;DHT22;1016;48.770;9.154;2022-12-15T00:34:49;2.90;99.90
2024;DHT22;1016;48.770;9.154;2022-12-15T00:37:33;3.00;99.90
2024;DHT22;1016;48.770;9.154;2022-12-15T00:40:18;3.00;99.90
2024;DHT22;1016;48.770;9.154;2022-12-15T00:42:43;3.00;99.90
2024;DHT22;1016;48.770;9.154;2022-12-15T00:45:09;3.00;99.90
2024;DHT22;1016;48.770;9.154;2022-12-15T00:47:35;3.00;99.90
2024;DHT22;1016;48.770;9.154;2022-12-15T00:50:01;2.90;99.90
2024;DHT22;1016;48.770;9.154;2022-12-15T00:52:49;2.90;99.90
2024;DHT22;1016;48.770;9.154;2022-12-15T00:55:33;3.00;99.90
2024;DHT22;1016;48.770;9.154;2022-12-15T00:58:17;3.00;99.90
2024;DHT22;1016;48.770;9.154;2022-12-15T01:01:05;3.10;99.90
2024;DHT22;1016;48.770;9.154;2022-12-15T01:03:50;3.10;99.90
2024;DHT22;1016;48.770;9.154;2022-12-15T01:06:34;3.10;99.90
2024;DHT22;1016;48.770;9.154;2022-12-15T01:09:18;3.10;99.90
2024;DHT22;1016;48.770;9.154;2022-12-15T01:12:02;3.10;99.90
2024;DHT22;1016;48.770;9.154;2022-12-15T01:14:46;3.10;99.90
2024;DHT22;1016;48.770;9.154;2022-12-15T01:17:31;3.10;99.90
2024;DHT22;1016;48.770;9.154;2022-12-15T01:20:15;3.10;99.90
2024;DHT22;1016;48.770;9.154;2022-12-15T01:22:45;3.00;99.90
2024;DHT22;1016;48.770;9.154;2022-12-15T01:25:11;3.00;99.90
2024;DHT22;1016;48.770;9.154;2022-12-15T01:27:37;3.00;99.90
2024;DHT22;1016;48.770;9.154;2022-12-15T01:30:05;3.00;99.90
2024;DHT22;1016;48.770;9.154;2022-12-15T01:32:31;2.90;99.90
2024;DHT22;1016;48.770;9.154;2022-12-15T01:34:56;2.80;99.90
2024;DHT22;1016;48.770;9.154;2022-12-15T01:37:22;2.80;99.90
2024;DHT22;1016;48.770;9.154;2022-12-15T01:39:47;2.70;99.90
2024;DHT22;1016;48.770;9.154;2022-12-15T01:42:32;2.70;99.90
2024;DHT22;1016;48.770;9.154;2022-12-15T01:45:35;2.70;99.90
2024;DHT22;1016;48.770;9.154;2022-12-15T01:48:06;2.60;99.90
2024;DHT22;1016;48.770;9.154;2022-12-15T01:50:44;2.60;99.90
2024;DHT22;1016;48.770;9.154;2022-12-15T01:53:11;2.70;99.90
2024;DHT22;1016;48.770;9.154;2022-12-15T01:55:40;2.70;99.90
2024;DHT22;1016;48.770;9.154;2022-12-15T01:58:07;2.60;99.90
2024;DHT22;1016;48.770;9.154;2022-12-15T02:00:34;2.60;99.90
2024;DHT22;1016;48.770;9.154;2022-12-15T02:03:00;2.60;99.90
2024;DHT22;1016;48.770;9.154;2022-12-15T02:05:27;2.50;99.90
2024;DHT22;1016;48.770;9.154;2022-12-15T02:07:54;2.40;99.90
2024;DHT22;1016;48.770;9.154;2022-12-15T02:10:20;2.40;99.90
2024;DHT22;1016;48.770;9.154;2022-12-15T02:13:08;2.40;99.90
2024;DHT22;1016;48.770;9.154;2022-12-15T02:16:09;2.40;99.90
2024;DHT22;1016;48.770;9.154;2022-12-15T02:18:52;2.40;99.90
2024;DHT22;1016;48.770;9.154;2022-12-15T02:21:25;2.40;99.90
2024;DHT22;1016;48.770;9.154;2022-12-15T02:27:09;2.50;99.90
2024;DHT22;1016;48.770;9.154;2022-12-15T02:33:05;2.60;99.90
2024;DHT22;1016;48.770;9.154;2022-12-15T02:36:15;2.70;99.90
2024;DHT22;1016;48.770;9.154;2022-12-15T02:38:43;2.80;99.90
2024;DHT22;1016;48.770;9.154;2022-12-15T02:41:39;2.80;99.90
2024;DHT22;1016;48.770;9.154;2022-12-15T02:44:09;2.80;99.90
2024;DHT22;1016;48.770;9.154;2022-12-15T02:49:45;2.80;99.90
2024;DHT22;1016;48.770;9.154;2022-12-15T03:00:30;2.90;99.90
2024;DHT22;1016;48.770;9.154;2022-12-15T03:02:57;2.90;99.90
2024;DHT22;1016;48.770;9.154;2022-12-15T03:05:24;2.90;99.90
2024;DHT22;1016;48.770;9.154;2022-12-15T03:07:51;2.90;99.90
2024;DHT22;1016;48.770;9.154;2022-12-15T03:10:19;2.90;99.90
2024;DHT22;1016;48.770;9.154;2022-12-15T03:12:46;2.90;99.90
2024;DHT22;1016;48.770;9.154;2022-12-15T03:15:11;2.90;99.90
2024;DHT22;1016;48.770;9.154;2022-12-15T03:17:37;2.90;99.90
2024;DHT22;1016;48.770;9.154;2022-12-15T03:20:04;2.90;99.90
2024;DHT22;1016;48.770;9.154;2022-12-15T03:22:30;2.90;99.90
2024;DHT22;1016;48.770;9.154;2022-12-15T03:24:56;2.80;99.90
2024;DHT22;1016;48.770;9.154;2022-12-15T03:27:22;2.70;99.90
2024;DHT22;1016;48.770;9.154;2022-12-15T03:29:47;2.70;99.90
2024;DHT22;1016;48.770;9.154;2022-12-15T03:32:13;2.60;99.90
2024;DHT22;1016;48.770;9.154;2022-12-15T03:34:38;2.50;99.90
2024;DHT22;1016;48.770;9.154;2022-12-15T03:37:04;2.50;99.90
2024;DHT22;1016;48.770;9.154;2022-12-15T03:39:29;2.60;99.90
2024;DHT22;1016;48.770;9.154;2022-12-15T03:41:55;2.60;99.90
2024;DHT22;1016;48.770;9.154;2022-12-15T03:44:20;2.70;99.90
2024;DHT22;1016;48.770;9.154;2022-12-15T03:46:46;2.70;99.90
2024;DHT22;1016;48.770;9.154;2022-12-15T03:49:11;2.80;99.90
2024;DHT22;1016;48.770;9.154;2022-12-15T03:51:37;2.80;99.90
2024;DHT22;1016;48.770;9.154;2022-12-15T03:54:02;2.70;99.90
2024;DHT22;1016;48.770;9.154;2022-12-15T03:56:28;2.60;99.90
2024;DHT22;1016;48.770;9.154;2022-12-15T03:58:53;2.60;99.90
2024;DHT22;1016;48.770;9.154;2022-12-15T04:01:28;2.60;99.90
2024;DHT22;1016;48.770;9.154;2022-12-15T04:03:54;2.70;99.90
2024;DHT22;1016;48.770;9.154;2022-12-15T04:06:20;2.80;99.90
2024;DHT22;1016;48.770;9.154;2022-12-15T04:08:46;2.80;99.90
2024;DHT22;1016;48.770;9.154;2022-12-15T04:11:12;2.80;99.90
2024;DHT22;1016;48.770;9.154;2022-12-15T04:13:37;2.80;99.90
2024;DHT22;1016;48.770;9.154;2022-12-15T04:16:03;2.90;99.90
2024;DHT22;1016;48.770;9.154;2022-12-15T04:18:29;2.80;99.90
2024;DHT22;1016;48.770;9.154;2022-12-15T04:20:55;2.80;99.90
2024;DHT22;1016;48.770;9.154;2022-12-15T04:23:21;2.90;99.90
2024;DHT22;1016;48.770;9.154;2022-12-15T04:25:47;2.90;99.90
2024;DHT22;1016;48.770;9.154;2022-12-15T04:28:31;2.90;99.90
2024;DHT22;1016;48.770;9.154;2022-12-15T04:31:19;2.90;99.90
2024;DHT22;1016;48.770;9.154;2022-12-15T04:34:07;2.80;99.90
2024;DHT22;1016;48.770;9.154;2022-12-15T04:36:53;2.80;99.90
2024;DHT22;1016;48.770;9.154;2022-12-15T04:39:40;2.80;99.90
2024;DHT22;1016;48.770;9.154;2022-12-15T04:42:25;2.70;99.90
2024;DHT22;1016;48.770;9.154;2022-12-15T04:45:10;2.70;99.90
2024;DHT22;1016;48.770;9.154;2022-12-15T04:47:54;2.80;99.90
2024;DHT22;1016;48.770;9.154;2022-12-15T04:50:38;2.70;99.90
2024;DHT22;1016;48.770;9.154;2022-12-15T04:53:22;2.60;99.90
2024;DHT22;1016;48.770;9.154;2022-12-15T04:56:11;2.60;99.90
2024;DHT22;1016;48.770;9.154;2022-12-15T04:58:56;2.60;99.90
2024;DHT22;1016;48.770;9.154;2022-12-15T05:01:41;2.60;99.90
2024;DHT22;1016;48.770;9.154;2022-12-15T05:04:25;2.60;99.90
2024;DHT22;1016;48.770;9.154;2022-12-15T05:07:09;2.60;99.90
2024;DHT22;1016;48.770;9.154;2022-12-15T05:09:53;2.70;99.90
2024;DHT22;1016;48.770;9.154;2022-12-15T05:12:37;2.70;99.90
2024;DHT22;1016;48.770;9.154;2022-12-15T05:15:21;2.60;99.90
2024;DHT22;1016;48.770;9.154;2022-12-15T05:18:05;2.60;99.90
2024;DHT22;1016;48.770;9.154;2022-12-15T05:20:49;2.70;99.90
2024;DHT22;1016;48.770;9.154;2022-12-15T05:23:33;2.70;99.90
2024;DHT22;1016;48.770;9.154;2022-12-15T05:26:17;2.70;99.90
2024;DHT22;1016;48.770;9.154;2022-12-15T05:29:01;2.70;99.90
2024;DHT22;1016;48.770;9.154;2022-12-15T05:31:45;2.70;99.90
2024;DHT22;1016;48.770;9.154;2022-12-15T05:34:32;2.70;99.90
2024;DHT22;1016;48.770;9.154;2022-12-15T05:36:59;2.60;99.90
2024;DHT22;1016;48.770;9.154;2022-12-15T05:39:25;2.60;99.90
2024;DHT22;1016;48.770;9.154;2022-12-15T05:41:52;2.60;99.90
2024;DHT22;1016;48.770;9.154;2022-12-15T05:44:18;2.60;99.90
2024;DHT22;1016;48.770;9.154;2022-12-15T05:46:44;2.60;99.90
2024;DHT22;1016;48.770;9.154;2022-12-15T05:49:12;2.60;99.90
2024;DHT22;1016;48.770;9.154;2022-12-15T05:51:40;2.60;99.90
2024;DHT22;1016;48.770;9.154;2022-12-15T05:54:07;2.60;99.90
2024;DHT22;1016;48.770;9.154;2022-12-15T05:56:33;2.60;99.90
2024;DHT22;1016;48.770;9.154;2022-12-15T05:58:58;2.60;99.90
2024;DHT22;1016;48.770;9.154;2022-12-15T06:01:25;2.60;99.90
2024;DHT22;1016;48.770;9.154;2022-12-15T06:03:51;2.60;99.90
2024;DHT22;1016;48.770;9.154;2022-12-15T06:06:17;2.60;99.90
2024;DHT22;1016;48.770;9.154;2022-12-15T06:08:43;2.70;99.90
2024;DHT22;1016;48.770;9.154;2022-12-15T06:11:13;2.80;99.90
2024;DHT22;1016;48.770;9.154;2022-12-15T06:13:39;2.90;99.90
2024;DHT22;1016;48.770;9.154;2022-12-15T06:16:19;2.90;99.90
2024;DHT22;1016;48.770;9.154;2022-12-15T06:18:52;2.90;99.90
2024;DHT22;1016;48.770;9.154;2022-12-15T06:21:20;3.00;99.90
2024;DHT22;1016;48.770;9.154;2022-12-15T06:23:48;3.10;99.90
2024;DHT22;1016;48.770;9.154;2022-12-15T06:26:17;3.10;99.90
2024;DHT22;1016;48.770;9.154;2022-12-15T06:28:44;3.20;99.90
2024;DHT22;1016;48.770;9.154;2022-12-15T06:31:10;3.20;99.90
2024;DHT22;1016;48.770;9.154;2022-12-15T06:33:36;3.20;99.90
2024;DHT22;1016;48.770;9.154;2022-12-15T06:36:13;3.20;99.90
2024;DHT22;1016;48.770;9.154;2022-12-15T06:38:39;3.20;99.90
2024;DHT22;1016;48.770;9.154;2022-12-15T06:41:08;3.10;99.90
2024;DHT22;1016;48.770;9.154;2022-12-15T06:43:34;3.10;99.90
2024;DHT22;1016;48.770;9.154;2022-12-15T06:46:00;3.10;99.90
2024;DHT22;1016;48.770;9.154;2022-12-15T06:48:26;3.10;99.90
2024;DHT22;1016;48.770;9.154;2022-12-15T06:50:52;3.10;99.90
2024;DHT22;1016;48.770;9.154;2022-12-15T06:53:20;3.10;99.90
2024;DHT22;1016;48.770;9.154;2022-12-15T06:55:47;3.00;99.90
2024;DHT22;1016;48.770;9.154;2022-12-15T06:58:13;3.10;99.90
2024;DHT22;1016;48.770;9.154;2022-12-15T07:00:40;3.10;99.90
2024;DHT22;1016;48.770;9.154;2022-12-15T07:03:08;3.20;99.90
2024;DHT22;1016;48.770;9.154;2022-12-15T07:05:34;3.20;99.90
2024;DHT22;1016;48.770;9.154;2022-12-15T07:08:00;3.20;99.90
2024;DHT22;1016;48.770;9.154;2022-12-15T07:10:25;3.20;99.90
2024;DHT22;1016;48.770;9.154;2022-12-15T07:12:51;3.20;99.90
2024;DHT22;1016;48.770;9.154;2022-12-15T07:15:16;3.20;99.90
2024;DHT22;1016;48.770;9.154;2022-12-15T07:17:42;3.20;99.90
2024;DHT22;1016;48.770;9.154;2022-12-15T07:20:08;3.20;99.90
2024;DHT22;1016;48.770;9.154;2022-12-15T07:22:34;3.20;99.90
2024;DHT22;1016;48.770;9.154;2022-12-15T07:24:59;3.10;99.90
2024;DHT22;1016;48.770;9.154;2022-12-15T07:27:25;3.10;99.90
2024;DHT22;1016;48.770;9.154;2022-12-15T07:29:50;3.10;99.90
2024;DHT22;1016;48.770;9.154;2022-12-15T07:32:16;3.10;99.90
2024;DHT22;1016;48.770;9.154;2022-12-15T07:34:42;3.10;99.90
2024;DHT22;1016;48.770;9.154;2022-12-15T07:37:08;3.10;99.90
2024;DHT22;1016;48.770;9.154;2022-12-15T07:39:33;3.10;99.90
2024;DHT22;1016;48.770;9.154;2022-12-15T07:41:59;3.10;99.90
2024;DHT22;1016;48.770;9.154;2022-12-15T07:44:24;3.10;99.90
2024;DHT22;1016;48.770;9.154;2022-12-15T07:46:50;3.10;99.90
2024;DHT22;1016;48.770;9.154;2022-12-15T07:49:16;3.10;99.90
2024;DHT22;1016;48.770;9.154;2022-12-15T07:51:42;3.10;99.90
2024;DHT22;1016;48.770;9.154;2022-12-15T07:54:11;3.10;99.90
2024;DHT22;1016;48.770;9.154;2022-12-15T07:56:38;3.10;99.90
2024;DHT22;1016;48.770;9.154;2022-12-15T07:59:04;3.10;99.90
2024;DHT22;1016;48.770;9.154;2022-12-15T08:01:30;3.20;99.90
2024;DHT22;1016;48.770;9.154;2022-12-15T08:03:56;3.20;99.90
2024;DHT22;1016;48.770;9.154;2022-12-15T08:06:21;3.20;99.90
2024;DHT22;1016;48.770;9.154;2022-12-15T08:08:47;3.20;99.90
2024;DHT22;1016;48.770;9.154;2022-12-15T08:11:14;3.20;99.90
2024;DHT22;1016;48.770;9.154;2022-12-15T08:13:41;3.20;99.90
2024;DHT22;1016;48.770;9.154;2022-12-15T08:16:08;3.20;99.90
2024;DHT22;1016;48.770;9.154;2022-12-15T08:18:33;3.20;99.90
2024;DHT22;1016;48.770;9.154;2022-12-15T08:21:02;3.20;99.90
2024;DHT22;1016;48.770;9.154;2022-12-15T08:23:29;3.30;99.90
2024;DHT22;1016;48.770;9.154;2022-12-15T08:26:04;3.20;99.90
2024;DHT22;1016;48.770;9.154;2022-12-15T08:28:32;3.20;99.90
2024;DHT22;1016;48.770;9.154;2022-12-15T08:31:06;3.20;99.90
2024;DHT22;1016;48.770;9.154;2022-12-15T08:33:33;3.20;99.90
2024;DHT22;1016;48.770;9.154;2022-12-15T08:36:00;3.20;99.90
2024;DHT22;1016;48.770;9.154;2022-12-15T08:38:28;3.20;99.90
2024;DHT22;1016;48.770;9.154;2022-12-15T08:40:53;3.20;99.90
2024;DHT22;1016;48.770;9.154;2022-12-15T08:43:19;3.30;99.90
2024;DHT22;1016;48.770;9.154;2022-12-15T08:45:45;3.20;99.90
2024;DHT22;1016;48.770;9.154;2022-12-15T08:48:10;3.20;99.90
2024;DHT22;1016;48.770;9.154;2022-12-15T08:50:36;3.30;99.90
2024;DHT22;1016;48.770;9.154;2022-12-15T08:53:01;3.30;99.90
2024;DHT22;1016;48.770;9.154;2022-12-15T08:55:27;3.20;99.90
2024;DHT22;1016;48.770;9.154;2022-12-15T08:57:53;3.20;99.90
2024;DHT22;1016;48.770;9.154;2022-12-15T09:00:18;3.20;99.90
2024;DHT22;1016;48.770;9.154;2022-12-15T09:02:44;3.30;99.90
2024;DHT22;1016;48.770;9.154;2022-12-15T09:05:09;3.40;99.90
2024;DHT22;1016;48.770;9.154;2022-12-15T09:07:35;3.40;99.90
2024;DHT22;1016;48.770;9.154;2022-12-15T09:10:01;3.30;99.90
2024;DHT22;1016;48.770;9.154;2022-12-15T09:12:27;3.30;99.90
2024;DHT22;1016;48.770;9.154;2022-12-15T09:14:52;3.30;99.90
2024;DHT22;1016;48.770;9.154;2022-12-15T09:17:18;3.30;99.90
2024;DHT22;1016;48.770;9.154;2022-12-15T09:19:43;3.20;99.90
2024;DHT22;1016;48.770;9.154;2022-12-15T09:22:09;3.30;99.90
2024;DHT22;1016;48.770;9.154;2022-12-15T09:24:35;3.30;99.90
2024;DHT22;1016;48.770;9.154;2022-12-15T09:27:01;3.40;99.90
2024;DHT22;1016;48.770;9.154;2022-12-15T09:29:27;3.30;99.90
2024;DHT22;1016;48.770;9.154;2022-12-15T09:31:53;3.30;99.90
2024;DHT22;1016;48.770;9.154;2022-12-15T09:34:18;3.30;99.90
2024;DHT22;1016;48.770;9.154;2022-12-15T09:36:44;3.30;99.90
2024;DHT22;1016;48.770;9.154;2022-12-15T09:39:09;3.40;99.90
2024;DHT22;1016;48.770;9.154;2022-12-15T09:41:37;3.40;99.90
2024;DHT22;1016;48.770;9.154;2022-12-15T09:44:13;3.50;99.90
2024;DHT22;1016;48.770;9.154;2022-12-15T09:49:55;3.50;99.90
2024;DHT22;1016;48.770;9.154;2022-12-15T09:52:45;3.60;99.90
2024;DHT22;1016;48.770;9.154;2022-12-15T09:55:18;3.60;99.90
2024;DHT22;1016;48.770;9.154;2022-12-15T09:57:54;3.70;99.90
2024;DHT22;1016;48.770;9.154;2022-12-15T10:03:20;3.80;99.90
2024;DHT22;1016;48.770;9.154;2022-12-15T10:06:12;3.80;99.90
2024;DHT22;1016;48.770;9.154;2022-12-15T10:08:41;3.70;99.90
2024;DHT22;1016;48.770;9.154;2022-12-15T10:11:14;3.80;99.90
2024;DHT22;1016;48.770;9.154;2022-12-15T10:16:49;3.80;99.90
2024;DHT22;1016;48.770;9.154;2022-12-15T10:19:48;3.80;99.90
2024;DHT22;1016;48.770;9.154;2022-12-15T10:22:23;3.80;99.90
2024;DHT22;1016;48.770;9.154;2022-12-15T10:24:49;3.80;99.90
2024;DHT22;1016;48.770;9.154;2022-12-15T10:27:28;3.80;99.90
2024;DHT22;1016;48.770;9.154;2022-12-15T10:30:04;3.70;99.90
2024;DHT22;1016;48.770;9.154;2022-12-15T10:32:37;3.70;99.90
2024;DHT22;1016;48.770;9.154;2022-12-15T10:35:21;3.70;99.90
2024;DHT22;1016;48.770;9.154;2022-12-15T10:37:47;3.70;99.90
2024;DHT22;1016;48.770;9.154;2022-12-15T10:40:18;3.70;99.90
2024;DHT22;1016;48.770;9.154;2022-12-15T10:42:47;3.70;99.90
2024;DHT22;1016;48.770;9.154;2022-12-15T10:45:30;3.70;99.90
2024;DHT22;1016;48.770;9.154;2022-12-15T10:47:58;3.60;99.90
2024;DHT22;1016;48.770;9.154;2022-12-15T10:50:26;3.60;99.90
2024;DHT22;1016;48.770;9.154;2022-12-15T10:52:52;3.60;99.90
2024;DHT22;1016;48.770;9.154;2022-12-15T10:55:39;3.60;99.90
2024;DHT22;1016;48.770;9.154;2022-12-15T10:58:21;3.60;99.90
2024;DHT22;1016;48.770;9.154;2022-12-15T11:01:05;3.60;99.90
2024;DHT22;1016;48.770;9.154;2022-12-15T11:03:35;3.60;99.90
2024;DHT22;1016;48.770;9.154;2022-12-15T11:06:00;3.60;99.90
2024;DHT22;1016;48.770;9.154;2022-12-15T11:08:28;3.70;99.90
2024;DHT22;1016;48.770;9.154;2022-12-15T11:10:58;3.70;99.90
2024;DHT22;1016;48.770;9.154;2022-12-15T11:14:09;3.70;99.90
2024;DHT22;1016;48.770;9.154;2022-12-15T11:16:44;3.70;99.90
2024;DHT22;1016;48.770;9.154;2022-12-15T11:19:13;3.70;99.90
2024;DHT22;1016;48.770;9.154;2022-12-15T11:21:47;3.70;99.90
2024;DHT22;1016;48.770;9.154;2022-12-15T11:27:01;3.90;99.90
2024;DHT22;1016;48.770;9.154;2022-12-15T11:32:24;3.80;99.90
2024;DHT22;1016;48.770;9.154;2022-12-15T11:34:50;3.90;99.90
2024;DHT22;1016;48.770;9.154;2022-12-15T11:37:25;3.90;99.90
2024;DHT22;1016;48.770;9.154;2022-12-15T11:46:20;3.80;99.90
2024;DHT22;1016;48.770;9.154;2022-12-15T11:49:21;3.70;99.90
2024;DHT22;1016;48.770;9.154;2022-12-15T11:54:52;3.80;99.90
2024;DHT22;1016;48.770;9.154;2022-12-15T11:57:29;3.70;99.90
2024;DHT22;1016;48.770;9.154;2022-12-15T12:00:07;3.70;99.90
2024;DHT22;1016;48.770;9.154;2022-12-15T12:05:36;3.70;99.90
2024;DHT22;1016;48.770;9.154;2022-12-15T12:10:58;3.80;99.90
2024;DHT22;1016;48.770;9.154;2022-12-15T12:16:45;3.80;99.90
2024;DHT22;1016;48.770;9.154;2022-12-15T12:21:50;3.80;99.90
2024;DHT22;1016;48.770;9.154;2022-12-15T12:24:25;3.80;99.90
2024;DHT22;1016;48.770;9.154;2022-12-15T12:26:59;3.80;99.90
2024;DHT22;1016;48.770;9.154;2022-12-15T12:29:33;3.80;99.90
2024;DHT22;1016;48.770;9.154;2022-12-15T12:32:27;3.80;99.90
2024;DHT22;1016;48.770;9.154;2022-12-15T12:37:43;3.70;99.90
2024;DHT22;1016;48.770;9.154;2022-12-15T12:43:05;3.80;99.90
2024;DHT22;1016;48.770;9.154;2022-12-15T12:45:48;3.80;99.90
2024;DHT22;1016;48.770;9.154;2022-12-15T12:48:26;3.70;99.90
2024;DHT22;1016;48.770;9.154;2022-12-15T12:53:35;3.60;99.90
2024;DHT22;1016;48.770;9.154;2022-12-15T12:56:01;3.60;99.90
2024;DHT22;1016;48.770;9.154;2022-12-15T13:03:29;3.70;99.90
2024;DHT22;1016;48.770;9.154;2022-12-15T13:05:54;3.70;99.90
2024;DHT22;1016;48.770;9.154;2022-12-15T13:08:45;3.70;99.90
2024;DHT22;1016;48.770;9.154;2022-12-15T13:14:34;3.80;99.90
2024;DHT22;1016;48.770;9.154;2022-12-15T13:17:30;3.70;99.90
2024;DHT22;1016;48.770;9.154;2022-12-15T13:22:31;3.80;99.90
2024;DHT22;1016;48.770;9.154;2022-12-15T13:24:58;3.90;99.90
2024;DHT22;1016;48.770;9.154;2022-12-15T13:27:37;4.00;99.90
2024;DHT22;1016;48.770;9.154;2022-12-15T13:32:44;4.00;99.90
2024;DHT22;1016;48.770;9.154;2022-12-15T13:38:01;3.90;99.90
2024;DHT22;1016;48.770;9.154;2022-12-15T13:45:45;3.90;99.90
2024;DHT22;1016;48.770;9.154;2022-12-15T13:48:26;4.00;99.90
2024;DHT22;1016;48.770;9.154;2022-12-15T13:54:12;4.00;99.90
2024;DHT22;1016;48.770;9.154;2022-12-15T14:01:50;3.90;99.90
2024;DHT22;1016;48.770;9.154;2022-12-15T14:04:17;3.80;99.90
2024;DHT22;1016;48.770;9.154;2022-12-15T14:06:53;3.90;99.90
2024;DHT22;1016;48.770;9.154;2022-12-15T14:09:25;3.80;99.90
2024;DHT22;1016;48.770;9.154;2022-12-15T14:11:52;3.80;99.90
2024;DHT22;1016;48.770;9.154;2022-12-15T14:14:22;3.80;99.90
2024;DHT22;1016;48.770;9.154;2022-12-15T14:16:53;3.80;99.90
2024;DHT22;1016;48.770;9.154;2022-12-15T14:19:20;3.80;99.90
2024;DHT22;1016;48.770;9.154;2022-12-15T14:21:56;3.90;99.90
2024;DHT22;1016;48.770;9.154;2022-12-15T14:24:28;3.90;99.90
2024;DHT22;1016;48.770;9.154;2022-12-15T14:26:54;4.00;99.90
2024;DHT22;1016;48.770;9.154;2022-12-15T14:29:21;4.00;99.90
2024;DHT22;1016;48.770;9.154;2022-12-15T14:31:55;4.00;99.90
2024;DHT22;1016;48.770;9.154;2022-12-15T14:34:26;4.00;99.90
2024;DHT22;1016;48.770;9.154;2022-12-15T14:36:55;4.10;99.90
2024;DHT22;1016;48.770;9.154;2022-12-15T14:39:27;4.10;99.90
2024;DHT22;1016;48.770;9.154;2022-12-15T14:41:55;4.00;99.90
2024;DHT22;1016;48.770;9.154;2022-12-15T14:44:34;4.10;99.90
2024;DHT22;1016;48.770;9.154;2022-12-15T14:47:02;4.10;99.90
2024;DHT22;1016;48.770;9.154;2022-12-15T14:49:41;4.10;99.90
2024;DHT22;1016;48.770;9.154;2022-12-15T14:54:53;4.10;99.90
2024;DHT22;1016;48.770;9.154;2022-12-15T14:57:41;4.10;99.90
2024;DHT22;1016;48.770;9.154;2022-12-15T15:05:41;4.20;99.90
2024;DHT22;1016;48.770;9.154;2022-12-15T15:08:13;4.00;99.90
2024;DHT22;1016;48.770;9.154;2022-12-15T15:10:40;4.00;99.90
2024;DHT22;1016;48.770;9.154;2022-12-15T15:13:20;3.90;99.90
2024;DHT22;1016;48.770;9.154;2022-12-15T15:15:55;3.90;99.90
2024;DHT22;1016;48.770;9.154;2022-12-15T15:18:25;3.90;99.90
2024;DHT22;1016;48.770;9.154;2022-12-15T15:20:58;3.90;99.90
2024;DHT22;1016;48.770;9.154;2022-12-15T15:23:25;3.90;99.90
2024;DHT22;1016;48.770;9.154;2022-12-15T15:25:53;3.90;99.90
2024;DHT22;1016;48.770;9.154;2022-12-15T15:30:53;3.80;99.90
2024;DHT22;1016;48.770;9.154;2022-12-15T15:33:19;3.80;99.90
2024;DHT22;1016;48.770;9.154;2022-12-15T15:35:52;3.80;99.90
2024;DHT22;1016;48.770;9.154;2022-12-15T15:40:56;3.90;99.90
2024;DHT22;1016;48.770;9.154;2022-12-15T15:43:23;3.90;99.90
2024;DHT22;1016;48.770;9.154;2022-12-15T15:46:11;3.90;99.90
2024;DHT22;1016;48.770;9.154;2022-12-15T15:48:41;3.90;99.90
2024;DHT22;1016;48.770;9.154;2022-12-15T15:51:07;3.90;99.90
2024;DHT22;1016;48.770;9.154;2022-12-15T15:53:33;3.90;99.90
2024;DHT22;1016;48.770;9.154;2022-12-15T15:55:59;3.90;99.90
2024;DHT22;1016;48.770;9.154;2022-12-15T15:58:26;4.00;99.90
2024;DHT22;1016;48.770;9.154;2022-12-15T16:00:52;3.90;99.90
2024;DHT22;1016;48.770;9.154;2022-12-15T16:03:18;4.00;99.90
2024;DHT22;1016;48.770;9.154;2022-12-15T16:05:43;4.00;99.90
2024;DHT22;1016;48.770;9.154;2022-12-15T16:08:14;3.90;99.90
2024;DHT22;1016;48.770;9.154;2022-12-15T16:10:43;3.90;99.90
2024;DHT22;1016;48.770;9.154;2022-12-15T16:13:11;3.90;99.90
2024;DHT22;1016;48.770;9.154;2022-12-15T16:15:38;3.90;99.90
2024;DHT22;1016;48.770;9.154;2022-12-15T16:18:04;4.00;99.90
2024;DHT22;1016;48.770;9.154;2022-12-15T16:20:29;4.00;99.90
2024;DHT22;1016;48.770;9.154;2022-12-15T16:23:01;4.00;99.90
2024;DHT22;1016;48.770;9.154;2022-12-15T16:25:33;4.00;99.90
2024;DHT22;1016;48.770;9.154;2022-12-15T16:28:01;4.00;99.90
2024;DHT22;1016;48.770;9.154;2022-12-15T16:30:28;4.00;99.90
2024;DHT22;1016;48.770;9.154;2022-12-15T16:32:54;4.10;99.90
2024;DHT22;1016;48.770;9.154;2022-12-15T16:35:23;4.00;99.90
2024;DHT22;1016;48.770;9.154;2022-12-15T16:37:48;4.10;99.90
2024;DHT22;1016;48.770;9.154;2022-12-15T16:40:19;4.00;99.90
2024;DHT22;1016;48.770;9.154;2022-12-15T16:42:50;4.10;99.90
2024;DHT22;1016;48.770;9.154;2022-12-15T16:45:18;4.10;99.90
2024;DHT22;1016;48.770;9.154;2022-12-15T16:47:44;4.10;99.90
2024;DHT22;1016;48.770;9.154;2022-12-15T16:50:19;4.10;99.90
2024;DHT22;1016;48.770;9.154;2022-12-15T16:52:47;4.10;99.90
2024;DHT22;1016;48.770;9.154;2022-12-15T16:55:21;4.20;99.90
2024;DHT22;1016;48.770;9.154;2022-12-15T16:57:47;4.10;99.90
2024;DHT22;1016;48.770;9.154;2022-12-15T17:00:19;4.10;99.90
2024;DHT22;1016;48.770;9.154;2022-12-15T17:02:45;4.10;99.90
2024;DHT22;1016;48.770;9.154;2022-12-15T17:05:11;4.10;99.90
2024;DHT22;1016;48.770;9.154;2022-12-15T17:07:37;4.10;99.90
2024;DHT22;1016;48.770;9.154;2022-12-15T17:10:04;4.20;99.90
2024;DHT22;1016;48.770;9.154;2022-12-15T17:12:30;4.20;99.90
2024;DHT22;1016;48.770;9.154;2022-12-15T17:14:56;4.20;99.90
2024;DHT22;1016;48.770;9.154;2022-12-15T17:17:22;4.20;99.90
2024;DHT22;1016;48.770;9.154;2022-12-15T17:19:49;4.30;99.90
2024;DHT22;1016;48.770;9.154;2022-12-15T17:22:16;4.30;99.90
2024;DHT22;1016;48.770;9.154;2022-12-15T17:24:42;4.30;99.90
2024;DHT22;1016;48.770;9.154;2022-12-15T17:27:24;4.30;99.90
2024;DHT22;1016;48.770;9.154;2022-12-15T17:29:53;4.30;99.90
2024;DHT22;1016;48.770;9.154;2022-12-15T17:32:19;4.30;99.90
2024;DHT22;1016;48.770;9.154;2022-12-15T17:34:45;4.30;99.90
2024;DHT22;1016;48.770;9.154;2022-12-15T17:37:12;4.30;99.90
2024;DHT22;1016;48.770;9.154;2022-12-15T17:39:39;4.30;99.90
2024;DHT22;1016;48.770;9.154;2022-12-15T17:42:16;4.40;99.90
2024;DHT22;1016;48.770;9.154;2022-12-15T17:44:43;4.30;99.90
2024;DHT22;1016;48.770;9.154;2022-12-15T17:47:11;4.30;99.90
2024;DHT22;1016;48.770;9.154;2022-12-15T17:49:37;4.30;99.90
2024;DHT22;1016;48.770;9.154;2022-12-15T17:52:17;4.30;99.90
2024;DHT22;1016;48.770;9.154;2022-12-15T17:54:44;4.30;99.90
2024;DHT22;1016;48.770;9.154;2022-12-15T17:57:10;4.30;99.90
2024;DHT22;1016;48.770;9.154;2022-12-15T17:59:36;4.30;99.90
2024;DHT22;1016;48.770;9.154;2022-12-15T18:02:02;4.30;99.90
2024;DHT22;1016;48.770;9.154;2022-12-15T18:04:27;4.30;99.90
2024;DHT22;1016;48.770;9.154;2022-12-15T18:06:53;4.30;99.90
2024;DHT22;1016;48.770;9.154;2022-12-15T18:09:24;4.30;99.90
2024;DHT22;1016;48.770;9.154;2022-12-15T18:11:51;4.30;99.90
2024;DHT22;1016;48.770;9.154;2022-12-15T18:14:17;4.30;99.90
2024;DHT22;1016;48.770;9.154;2022-12-15T18:16:44;4.20;99.90
2024;DHT22;1016;48.770;9.154;2022-12-15T18:19:09;4.20;99.90
2024;DHT22;1016;48.770;9.154;2022-12-15T18:21:35;4.20;99.90
2024;DHT22;1016;48.770;9.154;2022-12-15T18:24:14;4.20;99.90
2024;DHT22;1016;48.770;9.154;2022-12-15T18:26:41;4.20;99.90
2024;DHT22;1016;48.770;9.154;2022-12-15T18:29:15;4.30;99.90
2024;DHT22;1016;48.770;9.154;2022-12-15T18:31:47;4.30;99.90